Tzoanna Vi — SYHY — position and weather

sailwx.info

Track history (hours):
 
Tides and Currents Weather Stations Pressure Air Temp Water Temp Dewpoint Dewpoint Depression Visibility Wind Speed Wind Dir Waves Ship Positions

Tzoanna Vi

Last reported at 2015-May-06 18:33 UTC. Time now 2015-May-06 20:34 UTC.
Position N 37°16' E 024°14'.

Length 84 m; draft 5.5 m.

Type: Cargo ship. MMSI: 237991700.

Date/timePositionNaut miles runAvg speedWind from/ knotsBaromVisibWave heightAir tempDewpointWater temp
2015-May-06 18:33N 37°16' E 024°14'40 9.9
2015-May-06 14:32N 37°56' E 024°08'11 9.6
2015-May-06 13:25N 38°06' E 024°06'3 0.1
2015-May-05 10:32N 38°05' E 024°09'8 8.5
2015-May-05 09:33N 37°57' E 024°14'88 8.5
2015-May-04 23:07N 36°36' E 024°58'5 8.3
2015-May-04 22:33N 36°32' E 025°02'10 8.5
2015-May-04 21:23N 36°24' E 025°08'7 8.6
2015-May-04 20:33N 36°18' E 025°13'9 8.7
2015-May-04 19:33N 36°10' E 025°18'26 8.7
2015-May-04 16:33N 35°47' E 025°32'16 0.8
2015-May-03 21:28N 35°33' E 025°41'19 9.4
2015-May-03 19:23N 35°50' E 025°30'17 9.1
2015-May-03 17:33N 36°05' E 025°21'9 9.3
2015-May-03 16:33N 36°13' E 025°16'10 9.4
2015-May-03 15:33N 36°21' E 025°10'10 9.6
2015-May-03 14:33N 36°29' E 025°04'1210.0
2015-May-03 13:22N 36°40' E 024°57'1010.0
2015-May-03 12:20N 36°50' E 024°54'1810.0
2015-May-03 10:31N 37°07' E 024°48'23 9.6
2015-May-03 08:05N 37°30' E 024°40'48 9.7
2015-May-03 03:07N 38°18' E 024°31'  
2015-Apr-29 00:09N 38°22' E 023°52'5 8.3
2015-Apr-28 23:30N 38°22' E 023°45'  
Track history (hours):
 
Tides and Currents Weather Stations Pressure Air Temp Water Temp Dewpoint Dewpoint Depression Visibility Wind Speed Wind Dir Waves Ship Positions

Tzoanna Vi

Last reported at 2015-May-06 18:33 UTC. Time now 2015-May-06 20:34 UTC.
Position N 37°16' E 024°14'.

Length 84 m; draft 5.5 m.

Type: Cargo ship. MMSI: 237991700.

Date/timePositionNaut miles runAvg speedWind from/ knotsBaromVisibWave heightAir tempDewpointWater temp
2015-May-06 18:33N 37°16' E 024°14'40 9.9
2015-May-06 14:32N 37°56' E 024°08'11 9.6
2015-May-06 13:25N 38°06' E 024°06'3 0.1
2015-May-05 10:32N 38°05' E 024°09'8 8.5
2015-May-05 09:33N 37°57' E 024°14'88 8.5
2015-May-04 23:07N 36°36' E 024°58'5 8.3
2015-May-04 22:33N 36°32' E 025°02'10 8.5
2015-May-04 21:23N 36°24' E 025°08'7 8.6
2015-May-04 20:33N 36°18' E 025°13'9 8.7
2015-May-04 19:33N 36°10' E 025°18'26 8.7
2015-May-04 16:33N 35°47' E 025°32'16 0.8
2015-May-03 21:28N 35°33' E 025°41'19 9.4
2015-May-03 19:23N 35°50' E 025°30'17 9.1
2015-May-03 17:33N 36°05' E 025°21'9 9.3
2015-May-03 16:33N 36°13' E 025°16'10 9.4
2015-May-03 15:33N 36°21' E 025°10'10 9.6
2015-May-03 14:33N 36°29' E 025°04'1210.0
2015-May-03 13:22N 36°40' E 024°57'1010.0
2015-May-03 12:20N 36°50' E 024°54'1810.0
2015-May-03 10:31N 37°07' E 024°48'23 9.6
2015-May-03 08:05N 37°30' E 024°40'48 9.7
2015-May-03 03:07N 38°18' E 024°31'  
2015-Apr-29 00:09N 38°22' E 023°52'5 8.3
2015-Apr-28 23:30N 38°22' E 023°45'  

Dump ship's entire track history